createdAt,value
2023-04-01T00:00:14.949Z,14.74
2023-04-01T00:03:17.563Z,14.63
2023-04-01T00:06:20.067Z,14.62
2023-04-01T00:09:22.176Z,14.56
2023-04-01T00:12:26.110Z,14.61
2023-04-01T00:15:28.306Z,14.57
2023-04-01T00:18:30.811Z,14.56
2023-04-01T00:21:33.280Z,14.55
2023-04-01T00:24:35.668Z,14.54
2023-04-01T00:27:37.973Z,14.50
2023-04-01T00:30:40.265Z,14.39
2023-04-01T00:33:42.522Z,14.42
2023-04-01T00:36:44.959Z,14.45
2023-04-01T00:39:47.587Z,14.49
2023-04-01T00:42:49.864Z,14.45
2023-04-01T00:45:52.057Z,14.37
2023-04-01T00:48:56.478Z,14.47
2023-04-01T00:52:01.339Z,14.42
2023-04-01T00:55:06.247Z,14.45
2023-04-01T00:58:11.316Z,14.44
2023-04-01T01:01:13.724Z,14.45
2023-04-01T01:04:31.254Z,14.48
2023-04-01T01:07:42.860Z,14.46
2023-04-01T01:10:50.026Z,14.44
2023-04-01T01:14:37.169Z,14.40
2023-04-01T01:18:01.196Z,14.43
2023-04-01T01:21:35.753Z,14.38
2023-04-01T01:24:41.121Z,14.37
2023-04-01T01:27:50.688Z,14.38
2023-04-01T01:31:03.443Z,14.43
2023-04-01T01:34:33.832Z,14.50
2023-04-01T01:37:36.481Z,14.52
2023-04-01T01:40:41.088Z,14.60
2023-04-01T01:43:45.938Z,14.57
2023-04-01T01:46:50.793Z,14.62
2023-04-01T01:49:54.275Z,14.56
2023-04-01T01:53:07.177Z,14.62
2023-04-01T01:56:13.563Z,14.63
2023-04-01T01:59:17.183Z,14.65
2023-04-01T02:02:20.882Z,14.59
2023-04-01T02:05:26.079Z,14.55
2023-04-01T02:08:37.531Z,14.49
2023-04-01T02:11:46.222Z,14.54
2023-04-01T02:14:53.303Z,14.58
2023-04-01T02:17:59.159Z,14.58
2023-04-01T02:21:01.729Z,14.42
2023-04-01T02:24:07.467Z,14.51
2023-04-01T02:27:10.971Z,14.52
2023-04-01T02:30:14.608Z,14.43
2023-04-01T02:33:17.775Z,14.44
2023-04-01T02:36:20.035Z,14.43
2023-04-01T02:39:22.549Z,14.47
2023-04-01T02:42:24.732Z,14.44
2023-04-01T02:45:26.864Z,14.44
2023-04-01T02:48:29.485Z,14.46
2023-04-01T02:51:32.672Z,14.50
2023-04-01T02:54:35.419Z,14.53
2023-04-01T02:57:37.557Z,14.52
2023-04-01T03:00:39.755Z,14.52
2023-04-01T03:03:41.884Z,14.54
2023-04-01T03:06:44.084Z,14.48
2023-04-01T03:09:46.203Z,14.39
2023-04-01T03:12:48.319Z,14.35
2023-04-01T03:15:50.723Z,14.30
2023-04-01T03:18:54.338Z,14.31
2023-04-01T03:21:57.349Z,14.27
2023-04-01T03:25:00.145Z,14.29
2023-04-01T03:28:03.273Z,14.23
2023-04-01T03:31:06.138Z,14.37
2023-04-01T03:37:33.282Z,14.38
2023-04-01T03:40:38.341Z,14.40
2023-04-01T03:43:44.620Z,14.32
2023-04-01T03:46:47.318Z,14.35
2023-04-01T03:49:51.038Z,14.34
2023-04-01T03:52:53.229Z,14.26
2023-04-01T03:55:55.676Z,14.20
2023-04-01T03:59:01.148Z,14.21
2023-04-01T04:02:03.547Z,14.22
2023-04-01T04:05:07.936Z,14.16
2023-04-01T04:08:10.719Z,14.14
2023-04-01T04:11:13.111Z,14.16
2023-04-01T04:14:17.694Z,14.17
2023-04-01T04:17:21.193Z,14.08
2023-04-01T04:20:23.485Z,14.13
2023-04-01T04:23:25.763Z,14.09
2023-04-01T04:26:28.227Z,14.10
2023-04-01T04:29:35.774Z,14.11
2023-04-01T04:32:42.395Z,14.13
2023-04-01T04:35:46.672Z,14.18
2023-04-01T04:38:49.358Z,14.12
2023-04-01T04:41:51.637Z,14.12
2023-04-01T04:44:56.864Z,14.26
2023-04-01T04:47:59.746Z,14.30
2023-04-01T04:51:02.478Z,14.35
2023-04-01T04:54:05.170Z,14.44
2023-04-01T04:57:36.520Z,14.43
2023-04-01T05:00:38.795Z,14.41
2023-04-01T05:03:46.105Z,14.36
2023-04-01T05:06:48.336Z,14.29
2023-04-01T05:09:52.239Z,14.36
2023-04-01T05:12:54.540Z,14.39
2023-04-01T05:15:58.510Z,14.52
2023-04-01T05:19:01.306Z,14.53
2023-04-01T05:22:03.685Z,14.57
2023-04-01T05:25:06.453Z,14.55
2023-04-01T05:28:08.931Z,14.55
2023-04-01T05:31:11.478Z,14.60
2023-04-01T05:34:15.986Z,14.68
2023-04-01T05:37:18.496Z,14.67
2023-04-01T05:40:21.456Z,14.73
2023-04-01T05:43:23.707Z,14.79
2023-04-01T05:46:27.206Z,14.82
2023-04-01T05:49:34.959Z,14.87
2023-04-01T05:52:39.077Z,14.90
2023-04-01T05:55:41.296Z,14.93
2023-04-01T05:58:43.449Z,14.94
2023-04-01T06:01:45.722Z,14.98
2023-04-01T06:04:48.548Z,15.00
2023-04-01T06:08:02.192Z,15.22
2023-04-01T06:11:14.580Z,15.31
2023-04-01T06:14:54.990Z,15.34
2023-04-01T06:18:31.274Z,15.35
2023-04-01T06:21:56.366Z,15.45
2023-04-01T06:25:12.159Z,15.53
2023-04-01T06:28:17.524Z,15.53
2023-04-01T06:31:46.093Z,15.60
2023-04-01T06:35:01.437Z,15.63
2023-04-01T06:38:19.387Z,15.50
2023-04-01T06:41:36.745Z,15.55
2023-04-01T06:45:00.509Z,15.66
2023-04-01T06:48:43.240Z,15.70
2023-04-01T06:52:21.095Z,15.65
2023-04-01T06:55:50.936Z,15.72
2023-04-01T06:59:16.886Z,15.71
2023-04-01T07:02:32.361Z,15.72
2023-04-01T07:05:36.794Z,15.82
2023-04-01T07:08:41.800Z,15.86
2023-04-01T07:11:44.291Z,15.92
2023-04-01T07:15:25.993Z,15.96
2023-04-01T07:18:51.794Z,16.07
2023-04-01T07:22:00.065Z,16.02
2023-04-01T07:25:16.165Z,16.13
2023-04-01T07:32:10.362Z,16.19
2023-04-01T07:35:31.017Z,16.29
2023-04-01T07:38:45.383Z,16.36
2023-04-01T07:41:57.843Z,16.37
2023-04-01T07:45:17.525Z,16.46
2023-04-01T07:48:29.064Z,16.51
2023-04-01T07:51:55.231Z,16.49
2023-04-01T07:55:47.755Z,16.54
2023-04-01T07:59:31.547Z,16.56
2023-04-01T08:03:04.866Z,16.64
2023-04-01T08:06:28.528Z,16.79
2023-04-01T08:09:46.158Z,16.89
2023-04-01T08:13:22.781Z,16.88
2023-04-01T08:17:11.411Z,16.91
2023-04-01T08:20:37.588Z,16.82
2023-04-01T08:23:48.636Z,16.83
2023-04-01T08:26:55.204Z,16.82
2023-04-01T08:30:18.285Z,16.84
2023-04-01T08:33:23.732Z,16.92
2023-04-01T08:36:34.419Z,16.98
2023-04-01T08:40:35.881Z,16.99
2023-04-01T08:43:49.508Z,17.03
2023-04-01T08:47:21.709Z,17.02
2023-04-01T08:50:47.618Z,17.07
2023-04-01T08:54:42.975Z,17.11
2023-04-01T08:58:00.149Z,17.15
2023-04-01T09:01:39.410Z,17.20
2023-04-01T09:05:21.955Z,17.22
2023-04-01T09:08:48.705Z,17.27
2023-04-01T09:12:28.891Z,17.33
2023-04-01T09:15:51.677Z,17.39
2023-04-01T09:19:08.982Z,17.33
2023-04-01T09:22:28.481Z,17.36
2023-04-01T09:25:55.302Z,17.36
2023-04-01T09:29:00.875Z,17.45
2023-04-01T09:32:19.496Z,17.51
2023-04-01T09:35:31.067Z,17.58
2023-04-01T09:38:50.999Z,17.61
2023-04-01T09:41:59.314Z,17.68
2023-04-01T09:45:45.450Z,17.63
2023-04-01T09:49:01.531Z,17.56
2023-04-01T09:52:26.445Z,17.46
2023-04-01T09:55:51.515Z,17.48
2023-04-01T09:59:12.630Z,17.39
2023-04-01T10:03:06.453Z,17.31
2023-04-01T10:06:34.322Z,17.17
2023-04-01T10:10:05.246Z,17.26
2023-04-01T10:13:26.573Z,17.26
2023-04-01T10:16:43.713Z,17.28
2023-04-01T10:19:49.210Z,17.24
2023-04-01T10:23:04.756Z,17.22
2023-04-01T10:26:41.266Z,17.28
2023-04-01T10:30:26.021Z,17.24
2023-04-01T10:33:37.659Z,17.20
2023-04-01T10:36:53.459Z,17.19
2023-04-01T10:40:37.045Z,17.14
2023-04-01T10:44:23.638Z,17.10
2023-04-01T10:47:44.564Z,17.13
2023-04-01T10:51:17.880Z,17.17
2023-04-01T10:54:32.424Z,17.14
2023-04-01T10:58:37.022Z,17.17
2023-04-01T11:02:29.918Z,17.18
2023-04-01T11:06:23.028Z,17.25
2023-04-01T11:10:03.156Z,17.30
2023-04-01T11:13:21.163Z,17.32
2023-04-01T11:17:05.501Z,17.34
2023-04-01T11:20:11.084Z,17.33
2023-04-01T11:23:16.302Z,17.34
2023-04-01T11:26:46.372Z,17.36
2023-04-01T11:30:24.088Z,17.40
2023-04-01T11:33:37.954Z,17.39
2023-04-01T11:36:53.648Z,17.46
2023-04-01T11:40:10.012Z,17.47
2023-04-01T11:43:49.603Z,17.40
2023-04-01T11:47:20.521Z,17.39
2023-04-01T11:51:00.270Z,17.33
2023-04-01T11:54:16.074Z,17.27
2023-04-01T11:57:49.351Z,17.20
2023-04-01T12:01:01.246Z,17.14
2023-04-01T12:04:15.620Z,17.12
2023-04-01T12:07:24.021Z,17.09
2023-04-01T12:10:29.873Z,17.03
2023-04-01T12:13:42.021Z,17.13
2023-04-01T12:16:44.268Z,17.21
2023-04-01T12:19:54.014Z,17.13
2023-04-01T12:23:23.704Z,17.24
2023-04-01T12:26:58.047Z,17.38
2023-04-01T12:30:39.052Z,17.47
2023-04-01T12:34:02.940Z,17.55
2023-04-01T12:37:53.332Z,17.62
2023-04-01T12:41:11.925Z,17.68
2023-04-01T12:44:41.529Z,17.75
2023-04-01T12:48:10.954Z,17.82
2023-04-01T12:51:22.125Z,18.04
2023-04-01T12:54:55.336Z,18.26
2023-04-01T12:58:11.876Z,18.43
2023-04-01T13:01:31.475Z,18.59
2023-04-01T13:04:41.618Z,18.73
2023-04-01T13:07:46.630Z,18.88
2023-04-01T13:10:53.360Z,19.00
2023-04-01T13:13:55.458Z,19.10
2023-04-01T13:17:03.251Z,19.22
2023-04-01T13:20:11.237Z,19.35
2023-04-01T13:23:52.024Z,19.43
2023-04-01T13:27:09.038Z,19.56
2023-04-01T13:30:48.649Z,19.64
2023-04-01T13:34:14.153Z,19.72
2023-04-01T13:37:49.323Z,19.86
2023-04-01T13:41:06.300Z,19.94
2023-04-01T13:44:24.022Z,20.00
2023-04-01T13:47:43.685Z,20.00
2023-04-01T13:51:01.146Z,20.08
2023-04-01T13:54:37.303Z,20.06
2023-04-01T13:58:16.736Z,20.05
2023-04-01T14:01:28.330Z,20.01
2023-04-01T14:04:57.483Z,19.98
2023-04-01T14:08:16.143Z,20.04
2023-04-01T14:11:29.966Z,20.14
2023-04-01T14:15:00.170Z,20.22
2023-04-01T14:18:17.213Z,20.20
2023-04-01T14:21:37.210Z,20.19
2023-04-01T14:24:46.908Z,20.11
2023-04-01T14:28:08.452Z,20.07
2023-04-01T14:31:22.386Z,19.94
2023-04-01T14:34:50.004Z,19.84
2023-04-01T14:38:16.936Z,19.83
2023-04-01T14:41:29.698Z,19.90
2023-04-01T14:44:50.071Z,19.94
2023-04-01T14:47:59.789Z,20.15
2023-04-01T14:51:35.053Z,20.36
2023-04-01T14:54:39.172Z,20.50
2023-04-01T14:57:41.311Z,20.45
2023-04-01T15:00:46.448Z,20.40
2023-04-01T15:04:09.887Z,20.25
2023-04-01T15:07:30.835Z,20.30
2023-04-01T15:10:51.136Z,20.39
2023-04-01T15:13:59.426Z,20.39
2023-04-01T15:17:11.618Z,20.30
2023-04-01T15:20:25.981Z,20.12
2023-04-01T15:23:38.327Z,19.91
2023-04-01T15:26:46.103Z,19.65
2023-04-01T15:29:48.163Z,19.52
2023-04-01T15:33:02.343Z,19.46
2023-04-01T15:36:31.052Z,19.48
2023-04-01T15:40:08.808Z,19.60
2023-04-01T15:43:28.554Z,19.72
2023-04-01T15:46:46.353Z,19.76
2023-04-01T15:50:14.461Z,19.74
2023-04-01T15:53:22.339Z,19.69
2023-04-01T15:56:30.381Z,19.67
2023-04-01T15:59:57.456Z,19.64
2023-04-01T16:03:20.872Z,19.66
2023-04-01T16:07:16.909Z,19.60
2023-04-01T16:10:27.212Z,19.58
2023-04-01T16:13:49.500Z,19.66
2023-04-01T16:17:22.402Z,19.67
2023-04-01T16:20:43.351Z,19.55
2023-04-01T16:23:57.084Z,19.44
2023-04-01T16:27:05.890Z,19.33
2023-04-01T16:30:23.518Z,19.21
2023-04-01T16:33:52.118Z,19.15
2023-04-01T16:37:15.681Z,19.03
2023-04-01T16:40:43.719Z,18.91
2023-04-01T16:43:56.465Z,18.85
2023-04-01T16:47:11.417Z,18.82
2023-04-01T16:50:22.844Z,18.67
2023-04-01T16:53:46.906Z,18.64
2023-04-01T16:56:53.406Z,18.50
2023-04-01T16:59:59.841Z,18.47
2023-04-01T17:03:01.910Z,18.36
2023-04-01T17:06:13.020Z,18.27
2023-04-01T17:09:27.351Z,18.22
2023-04-01T17:12:52.954Z,18.18
2023-04-01T17:16:09.939Z,18.08
2023-04-01T17:19:49.669Z,18.06
2023-04-01T17:23:02.718Z,17.95
2023-04-01T17:26:13.288Z,17.84
2023-04-01T17:29:18.330Z,17.82
2023-04-01T17:32:32.431Z,17.64
2023-04-01T17:35:40.759Z,17.65
2023-04-01T17:39:16.324Z,17.62
2023-04-01T17:43:00.399Z,17.56
2023-04-01T17:46:11.676Z,17.47
2023-04-01T17:49:58.494Z,17.47
2023-04-01T17:53:28.038Z,17.45
2023-04-01T17:56:53.395Z,17.42
2023-04-01T18:00:14.059Z,17.38
2023-04-01T18:03:53.960Z,17.37
2023-04-01T18:07:20.324Z,17.35
2023-04-01T18:10:50.492Z,17.34
2023-04-01T18:14:17.532Z,17.37
2023-04-01T18:17:27.097Z,17.36
2023-04-01T18:20:37.881Z,17.40
2023-04-01T18:23:59.193Z,17.32
2023-04-01T18:27:07.966Z,17.31
2023-04-01T18:30:23.493Z,17.23
2023-04-01T18:33:31.586Z,17.20
2023-04-01T18:36:52.891Z,17.20
2023-04-01T18:40:16.381Z,17.13
2023-04-01T18:44:02.278Z,17.03
2023-04-01T18:47:28.476Z,16.96
2023-04-01T18:50:48.964Z,16.93
2023-04-01T18:53:58.157Z,16.90
2023-04-01T18:57:14.039Z,16.82
2023-04-01T19:00:25.883Z,16.81
2023-04-01T19:03:48.338Z,16.80
2023-04-01T19:06:55.814Z,16.77
2023-04-01T19:10:02.236Z,16.67
2023-04-01T19:13:12.423Z,16.57
2023-04-01T19:16:44.938Z,16.55
2023-04-01T19:19:52.720Z,16.54
2023-04-01T19:23:19.865Z,16.49
2023-04-01T19:26:28.259Z,16.44
2023-04-01T19:29:49.264Z,16.41
2023-04-01T19:33:28.972Z,16.34
2023-04-01T19:36:34.686Z,16.29
2023-04-01T19:40:09.880Z,16.27
2023-04-01T19:43:31.072Z,16.16
2023-04-01T19:46:45.351Z,16.10
2023-04-01T19:50:17.114Z,16.08
2023-04-01T19:53:47.350Z,16.08
2023-04-01T19:57:06.064Z,16.02
2023-04-01T20:00:13.313Z,16.02
2023-04-01T20:03:34.326Z,16.00
2023-04-01T20:06:43.246Z,15.97
2023-04-01T20:09:51.248Z,16.03
2023-04-01T20:13:18.309Z,16.12
2023-04-01T20:16:23.544Z,16.19
2023-04-01T20:19:31.674Z,16.22
2023-04-01T20:22:46.332Z,16.20
2023-04-01T20:26:03.639Z,16.16
2023-04-01T20:29:27.504Z,16.17
2023-04-01T20:32:35.846Z,16.23
2023-04-01T20:36:17.671Z,16.27
2023-04-01T20:39:46.718Z,16.24
2023-04-01T20:43:03.659Z,16.22
2023-04-01T20:46:22.023Z,16.21
2023-04-01T20:49:50.785Z,16.16
2023-04-01T20:53:14.525Z,16.19
2023-04-01T20:56:34.172Z,16.20
2023-04-01T20:59:36.316Z,16.19
2023-04-01T21:02:59.735Z,16.13
2023-04-01T21:06:27.747Z,16.11
2023-04-01T21:09:47.298Z,16.06
2023-04-01T21:13:02.361Z,16.12
2023-04-01T21:16:16.464Z,16.10
2023-04-01T21:19:52.432Z,16.05
2023-04-01T21:23:09.690Z,15.98
2023-04-01T21:26:20.674Z,15.94
2023-04-01T21:29:41.656Z,15.88
2023-04-01T21:33:05.033Z,15.83
2023-04-01T21:36:32.977Z,15.81
2023-04-01T21:39:53.216Z,15.79
2023-04-01T21:43:20.093Z,15.73
2023-04-01T21:47:02.982Z,15.67
2023-04-01T21:50:26.708Z,15.57
2023-04-01T21:54:07.385Z,15.57
2023-04-01T21:57:12.410Z,15.57
2023-04-01T22:00:21.196Z,15.56
2023-04-01T22:03:45.466Z,15.43
2023-04-01T22:06:49.856Z,15.51
2023-04-01T22:09:59.451Z,15.48
2023-04-01T22:13:09.326Z,15.59
2023-04-01T22:16:38.342Z,15.60
2023-04-01T22:19:51.798Z,15.60
2023-04-01T22:23:00.581Z,15.56
2023-04-01T22:26:07.692Z,15.58
2023-04-01T22:29:51.839Z,15.59
2023-04-01T22:33:01.262Z,15.62
2023-04-01T22:36:12.890Z,15.65
2023-04-01T22:39:27.091Z,15.57
2023-04-01T22:42:42.968Z,15.57
2023-04-01T22:46:30.154Z,15.48
2023-04-01T22:49:43.370Z,15.39
2023-04-01T22:52:52.916Z,15.44
2023-04-01T22:55:58.486Z,15.44
2023-04-01T22:59:20.348Z,15.43
2023-04-01T23:02:27.157Z,15.31
2023-04-01T23:05:29.885Z,15.24
2023-04-01T23:08:43.435Z,15.24
2023-04-01T23:11:50.088Z,15.31
2023-04-01T23:14:54.929Z,15.38
2023-04-01T23:18:20.885Z,15.39
2023-04-01T23:21:29.019Z,15.41
2023-04-01T23:24:53.608Z,15.48
2023-04-01T23:28:15.474Z,15.46
2023-04-01T23:31:28.661Z,15.42
2023-04-01T23:34:36.173Z,15.38
2023-04-01T23:37:38.306Z,15.34
2023-04-01T23:40:41.459Z,15.25
2023-04-01T23:43:44.833Z,15.23
2023-04-01T23:46:47.792Z,15.24
2023-04-01T23:49:56.433Z,15.11
2023-04-01T23:53:04.256Z,15.12
2023-04-01T23:56:06.724Z,15.05
2023-04-01T23:59:19.208Z,15.07
